sensor_id;sensor_type;location;lat;lon;timestamp;P1;P2;P0
55276;PMS5003;41136;51.478;-2.610;2024-03-02T00:01:38;2;2;
55276;PMS5003;41136;51.478;-2.610;2024-03-02T00:04:03;1;1;
55276;PMS5003;41136;51.478;-2.610;2024-03-02T00:06:28;3;1;
55276;PMS5003;41136;51.478;-2.610;2024-03-02T00:08:57;2;2;
55276;PMS5003;41136;51.478;-2.610;2024-03-02T00:11:19;3;3;
55276;PMS5003;41136;51.478;-2.610;2024-03-02T00:13:45;3;3;
55276;PMS5003;41136;51.478;-2.610;2024-03-02T00:16:10;1;1;
55276;PMS5003;41136;51.478;-2.610;2024-03-02T00:18:35;4;1;
55276;PMS5003;41136;51.478;-2.610;2024-03-02T00:21:01;1;1;
55276;PMS5003;41136;51.478;-2.610;2024-03-02T00:23:27;2;2;
55276;PMS5003;41136;51.478;-2.610;2024-03-02T00:25:52;1;1;
55276;PMS5003;41136;51.478;-2.610;2024-03-02T00:28:18;3;2;
55276;PMS5003;41136;51.478;-2.610;2024-03-02T00:30:50;2;1;
55276;PMS5003;41136;51.478;-2.610;2024-03-02T00:33:08;2;2;
55276;PMS5003;41136;51.478;-2.610;2024-03-02T00:35:33;1;1;
55276;PMS5003;41136;51.478;-2.610;2024-03-02T00:38:01;2;2;
55276;PMS5003;41136;51.478;-2.610;2024-03-02T00:40:25;1;1;
55276;PMS5003;41136;51.478;-2.610;2024-03-02T00:42:50;1;1;
55276;PMS5003;41136;51.478;-2.610;2024-03-02T00:45:15;2;2;
55276;PMS5003;41136;51.478;-2.610;2024-03-02T00:47:40;2;1;
55276;PMS5003;41136;51.478;-2.610;2024-03-02T00:50:06;1;1;
55276;PMS5003;41136;51.478;-2.610;2024-03-02T00:52:31;1;1;
55276;PMS5003;41136;51.478;-2.610;2024-03-02T00:54:57;1;1;
55276;PMS5003;41136;51.478;-2.610;2024-03-02T00:57:22;5;1;
55276;PMS5003;41136;51.478;-2.610;2024-03-02T00:59:48;1;1;
55276;PMS5003;41136;51.478;-2.610;2024-03-02T01:02:13;0;0;
55276;PMS5003;41136;51.478;-2.610;2024-03-02T01:12:21;1;1;
55276;PMS5003;41136;51.478;-2.610;2024-03-02T01:14:47;1;1;
55276;PMS5003;41136;51.478;-2.610;2024-03-02T01:17:12;1;1;
55276;PMS5003;41136;51.478;-2.610;2024-03-02T01:19:37;1;1;
55276;PMS5003;41136;51.478;-2.610;2024-03-02T01:22:03;0;0;
55276;PMS5003;41136;51.478;-2.610;2024-03-02T01:24:28;1;1;
55276;PMS5003;41136;51.478;-2.610;2024-03-02T01:26:54;1;1;
55276;PMS5003;41136;51.478;-2.610;2024-03-02T01:29:19;1;1;
55276;PMS5003;41136;51.478;-2.610;2024-03-02T01:31:44;1;1;
55276;PMS5003;41136;51.478;-2.610;2024-03-02T01:34:10;0;0;
55276;PMS5003;41136;51.478;-2.610;2024-03-02T01:36:35;1;1;
55276;PMS5003;41136;51.478;-2.610;2024-03-02T01:39:01;0;0;
55276;PMS5003;41136;51.478;-2.610;2024-03-02T01:41:26;2;2;
55276;PMS5003;41136;51.478;-2.610;2024-03-02T01:43:51;0;0;
55276;PMS5003;41136;51.478;-2.610;2024-03-02T01:46:17;1;1;
55276;PMS5003;41136;51.478;-2.610;2024-03-02T01:48:42;1;1;
55276;PMS5003;41136;51.478;-2.610;2024-03-02T01:51:08;0;0;
55276;PMS5003;41136;51.478;-2.610;2024-03-02T01:53:33;0;0;
55276;PMS5003;41136;51.478;-2.610;2024-03-02T01:55:58;3;2;
55276;PMS5003;41136;51.478;-2.610;2024-03-02T01:58:24;1;1;
55276;PMS5003;41136;51.478;-2.610;2024-03-02T02:00:49;1;1;
55276;PMS5003;41136;51.478;-2.610;2024-03-02T02:03:15;1;1;
55276;PMS5003;41136;51.478;-2.610;2024-03-02T02:05:41;1;1;
55276;PMS5003;41136;51.478;-2.610;2024-03-02T02:08:06;1;1;
55276;PMS5003;41136;51.478;-2.610;2024-03-02T02:10:31;1;1;
55276;PMS5003;41136;51.478;-2.610;2024-03-02T02:12:56;1;1;
55276;PMS5003;41136;51.478;-2.610;2024-03-02T02:15:22;0;0;
55276;PMS5003;41136;51.478;-2.610;2024-03-02T02:17:47;1;1;
55276;PMS5003;41136;51.478;-2.610;2024-03-02T02:20:13;0;0;
55276;PMS5003;41136;51.478;-2.610;2024-03-02T02:22:38;1;1;
55276;PMS5003;41136;51.478;-2.610;2024-03-02T02:25:03;1;1;
55276;PMS5003;41136;51.478;-2.610;2024-03-02T02:27:29;1;1;
55276;PMS5003;41136;51.478;-2.610;2024-03-02T02:29:54;4;1;
55276;PMS5003;41136;51.478;-2.610;2024-03-02T02:32:20;1;1;
55276;PMS5003;41136;51.478;-2.610;2024-03-02T02:34:45;2;2;
55276;PMS5003;41136;51.478;-2.610;2024-03-02T02:37:10;3;1;
55276;PMS5003;41136;51.478;-2.610;2024-03-02T02:39:36;0;0;
55276;PMS5003;41136;51.478;-2.610;2024-03-02T02:42:01;1;1;
55276;PMS5003;41136;51.478;-2.610;2024-03-02T02:44:26;0;0;
55276;PMS5003;41136;51.478;-2.610;2024-03-02T02:46:52;0;0;
55276;PMS5003;41136;51.478;-2.610;2024-03-02T02:49:17;3;1;
55276;PMS5003;41136;51.478;-2.610;2024-03-02T02:51:43;1;1;
55276;PMS5003;41136;51.478;-2.610;2024-03-02T02:54:08;0;0;
55276;PMS5003;41136;51.478;-2.610;2024-03-02T02:56:34;0;0;
55276;PMS5003;41136;51.478;-2.610;2024-03-02T02:58:59;1;1;
55276;PMS5003;41136;51.478;-2.610;2024-03-02T03:01:24;0;0;
55276;PMS5003;41136;51.478;-2.610;2024-03-02T03:03:50;1;1;
55276;PMS5003;41136;51.478;-2.610;2024-03-02T03:06:15;1;1;
55276;PMS5003;41136;51.478;-2.610;2024-03-02T03:08:41;1;1;
55276;PMS5003;41136;51.478;-2.610;2024-03-02T03:11:06;0;0;
55276;PMS5003;41136;51.478;-2.610;2024-03-02T03:13:31;1;1;
55276;PMS5003;41136;51.478;-2.610;2024-03-02T03:15:57;0;0;
55276;PMS5003;41136;51.478;-2.610;2024-03-02T03:18:22;1;1;
55276;PMS5003;41136;51.478;-2.610;2024-03-02T03:20:48;0;0;
55276;PMS5003;41136;51.478;-2.610;2024-03-02T03:23:13;1;0;
55276;PMS5003;41136;51.478;-2.610;2024-03-02T03:25:38;0;0;
55276;PMS5003;41136;51.478;-2.610;2024-03-02T03:28:04;1;1;
55276;PMS5003;41136;51.478;-2.610;2024-03-02T03:30:29;0;0;
55276;PMS5003;41136;51.478;-2.610;2024-03-02T03:32:55;0;0;
55276;PMS5003;41136;51.478;-2.610;2024-03-02T03:35:20;1;1;
55276;PMS5003;41136;51.478;-2.610;2024-03-02T03:37:45;1;0;
55276;PMS5003;41136;51.478;-2.610;2024-03-02T03:40:11;1;1;
55276;PMS5003;41136;51.478;-2.610;2024-03-02T03:42:36;6;1;
55276;PMS5003;41136;51.478;-2.610;2024-03-02T03:45:02;1;1;
55276;PMS5003;41136;51.478;-2.610;2024-03-02T03:47:27;1;1;
55276;PMS5003;41136;51.478;-2.610;2024-03-02T03:49:53;4;4;
55276;PMS5003;41136;51.478;-2.610;2024-03-02T03:52:19;3;2;
55276;PMS5003;41136;51.478;-2.610;2024-03-02T03:54:44;3;1;
55276;PMS5003;41136;51.478;-2.610;2024-03-02T03:57:09;3;3;
55276;PMS5003;41136;51.478;-2.610;2024-03-02T03:59:35;1;1;
55276;PMS5003;41136;51.478;-2.610;2024-03-02T04:02:00;0;0;
55276;PMS5003;41136;51.478;-2.610;2024-03-02T04:04:26;1;1;
55276;PMS5003;41136;51.478;-2.610;2024-03-02T04:06:51;2;2;
55276;PMS5003;41136;51.478;-2.610;2024-03-02T04:09:16;1;1;
55276;PMS5003;41136;51.478;-2.610;2024-03-02T04:11:42;4;4;
55276;PMS5003;41136;51.478;-2.610;2024-03-02T04:14:07;4;2;
55276;PMS5003;41136;51.478;-2.610;2024-03-02T04:16:33;2;2;
55276;PMS5003;41136;51.478;-2.610;2024-03-02T04:18:58;5;3;
55276;PMS5003;41136;51.478;-2.610;2024-03-02T04:21:24;3;3;
55276;PMS5003;41136;51.478;-2.610;2024-03-02T04:23:49;3;2;
55276;PMS5003;41136;51.478;-2.610;2024-03-02T04:26:15;3;3;
55276;PMS5003;41136;51.478;-2.610;2024-03-02T04:28:40;2;2;
55276;PMS5003;41136;51.478;-2.610;2024-03-02T04:31:05;1;1;
55276;PMS5003;41136;51.478;-2.610;2024-03-02T04:33:31;0;0;
55276;PMS5003;41136;51.478;-2.610;2024-03-02T04:35:56;0;0;
55276;PMS5003;41136;51.478;-2.610;2024-03-02T04:38:22;0;0;
55276;PMS5003;41136;51.478;-2.610;2024-03-02T04:40:47;0;0;
55276;PMS5003;41136;51.478;-2.610;2024-03-02T04:43:12;1;0;
55276;PMS5003;41136;51.478;-2.610;2024-03-02T04:45:38;2;2;
55276;PMS5003;41136;51.478;-2.610;2024-03-02T04:48:03;0;0;
55276;PMS5003;41136;51.478;-2.610;2024-03-02T04:50:28;0;0;
55276;PMS5003;41136;51.478;-2.610;2024-03-02T04:52:54;0;0;
55276;PMS5003;41136;51.478;-2.610;2024-03-02T04:55:19;0;0;
55276;PMS5003;41136;51.478;-2.610;2024-03-02T04:57:45;0;0;
55276;PMS5003;41136;51.478;-2.610;2024-03-02T05:00:10;0;0;
55276;PMS5003;41136;51.478;-2.610;2024-03-02T05:02:36;0;0;
55276;PMS5003;41136;51.478;-2.610;2024-03-02T05:05:01;0;0;
55276;PMS5003;41136;51.478;-2.610;2024-03-02T05:07:26;0;0;
55276;PMS5003;41136;51.478;-2.610;2024-03-02T05:09:52;0;0;
55276;PMS5003;41136;51.478;-2.610;2024-03-02T05:12:17;0;0;
55276;PMS5003;41136;51.478;-2.610;2024-03-02T05:29:24;0;0;
55276;PMS5003;41136;51.478;-2.610;2024-03-02T05:31:49;0;0;
55276;PMS5003;41136;51.478;-2.610;2024-03-02T05:34:15;0;0;
55276;PMS5003;41136;51.478;-2.610;2024-03-02T05:36:40;0;0;
55276;PMS5003;41136;51.478;-2.610;2024-03-02T05:39:06;0;0;
55276;PMS5003;41136;51.478;-2.610;2024-03-02T05:41:31;0;0;
55276;PMS5003;41136;51.478;-2.610;2024-03-02T05:43:56;0;0;
55276;PMS5003;41136;51.478;-2.610;2024-03-02T05:46:22;0;0;
55276;PMS5003;41136;51.478;-2.610;2024-03-02T05:48:47;0;0;
55276;PMS5003;41136;51.478;-2.610;2024-03-02T05:51:13;0;0;
55276;PMS5003;41136;51.478;-2.610;2024-03-02T05:53:38;0;0;
55276;PMS5003;41136;51.478;-2.610;2024-03-02T05:56:04;0;0;
55276;PMS5003;41136;51.478;-2.610;2024-03-02T05:58:29;0;0;
55276;PMS5003;41136;51.478;-2.610;2024-03-02T06:00:55;0;0;
55276;PMS5003;41136;51.478;-2.610;2024-03-02T06:03:20;0;0;
55276;PMS5003;41136;51.478;-2.610;2024-03-02T06:05:46;1;1;
55276;PMS5003;41136;51.478;-2.610;2024-03-02T06:08:11;2;0;
55276;PMS5003;41136;51.478;-2.610;2024-03-02T06:10:36;0;0;
55276;PMS5003;41136;51.478;-2.610;2024-03-02T06:13:02;0;0;
55276;PMS5003;41136;51.478;-2.610;2024-03-02T06:15:27;1;1;
55276;PMS5003;41136;51.478;-2.610;2024-03-02T06:17:53;0;0;
55276;PMS5003;41136;51.478;-2.610;2024-03-02T06:20:18;0;0;
55276;PMS5003;41136;51.478;-2.610;2024-03-02T06:22:44;0;0;
55276;PMS5003;41136;51.478;-2.610;2024-03-02T06:25:09;1;1;
55276;PMS5003;41136;51.478;-2.610;2024-03-02T06:40:10;0;0;
55276;PMS5003;41136;51.478;-2.610;2024-03-02T06:42:35;0;0;
55276;PMS5003;41136;51.478;-2.610;2024-03-02T06:45:01;0;0;
55276;PMS5003;41136;51.478;-2.610;2024-03-02T06:47:26;1;1;
55276;PMS5003;41136;51.478;-2.610;2024-03-02T06:49:51;2;2;
55276;PMS5003;41136;51.478;-2.610;2024-03-02T06:52:17;0;0;
55276;PMS5003;41136;51.478;-2.610;2024-03-02T06:54:42;3;2;
55276;PMS5003;41136;51.478;-2.610;2024-03-02T06:57:08;0;0;
55276;PMS5003;41136;51.478;-2.610;2024-03-02T06:59:33;0;0;
55276;PMS5003;41136;51.478;-2.610;2024-03-02T07:01:59;1;1;
55276;PMS5003;41136;51.478;-2.610;2024-03-02T07:04:24;3;2;
55276;PMS5003;41136;51.478;-2.610;2024-03-02T07:06:50;0;0;
55276;PMS5003;41136;51.478;-2.610;2024-03-02T07:09:15;2;2;
55276;PMS5003;41136;51.478;-2.610;2024-03-02T07:11:40;2;0;
55276;PMS5003;41136;51.478;-2.610;2024-03-02T07:14:06;2;0;
55276;PMS5003;41136;51.478;-2.610;2024-03-02T07:16:31;1;1;
55276;PMS5003;41136;51.478;-2.610;2024-03-02T07:18:57;1;1;
55276;PMS5003;41136;51.478;-2.610;2024-03-02T07:21:22;1;1;
55276;PMS5003;41136;51.478;-2.610;2024-03-02T07:23:48;1;1;
55276;PMS5003;41136;51.478;-2.610;2024-03-02T07:26:13;2;2;
55276;PMS5003;41136;51.478;-2.610;2024-03-02T07:28:39;2;1;
55276;PMS5003;41136;51.478;-2.610;2024-03-02T07:31:04;2;2;
55276;PMS5003;41136;51.478;-2.610;2024-03-02T07:33:30;3;3;
55276;PMS5003;41136;51.478;-2.610;2024-03-02T07:35:55;8;4;
55276;PMS5003;41136;51.478;-2.610;2024-03-02T07:38:20;4;4;
55276;PMS5003;41136;51.478;-2.610;2024-03-02T07:40:46;3;3;
55276;PMS5003;41136;51.478;-2.610;2024-03-02T07:43:11;3;3;
55276;PMS5003;41136;51.478;-2.610;2024-03-02T07:45:37;7;6;
55276;PMS5003;41136;51.478;-2.610;2024-03-02T07:48:02;5;5;
55276;PMS5003;41136;51.478;-2.610;2024-03-02T07:50:28;5;5;
55276;PMS5003;41136;51.478;-2.610;2024-03-02T07:52:53;4;4;
55276;PMS5003;41136;51.478;-2.610;2024-03-02T07:55:18;11;7;
55276;PMS5003;41136;51.478;-2.610;2024-03-02T07:57:44;7;3;
55276;PMS5003;41136;51.478;-2.610;2024-03-02T08:00:10;8;4;
55276;PMS5003;41136;51.478;-2.610;2024-03-02T08:02:35;7;5;
55276;PMS5003;41136;51.478;-2.610;2024-03-02T08:05:00;7;5;
55276;PMS5003;41136;51.478;-2.610;2024-03-02T08:07:26;5;2;
55276;PMS5003;41136;51.478;-2.610;2024-03-02T08:09:51;4;4;
55276;PMS5003;41136;51.478;-2.610;2024-03-02T08:12:16;8;3;
55276;PMS5003;41136;51.478;-2.610;2024-03-02T08:14:42;8;5;
55276;PMS5003;41136;51.478;-2.610;2024-03-02T08:17:07;5;5;
55276;PMS5003;41136;51.478;-2.610;2024-03-02T08:19:33;5;4;
55276;PMS5003;41136;51.478;-2.610;2024-03-02T08:21:58;5;5;
55276;PMS5003;41136;51.478;-2.610;2024-03-02T08:24:24;4;4;
55276;PMS5003;41136;51.478;-2.610;2024-03-02T08:26:49;7;3;
55276;PMS5003;41136;51.478;-2.610;2024-03-02T08:29:14;2;2;
55276;PMS5003;41136;51.478;-2.610;2024-03-02T08:31:40;7;3;
55276;PMS5003;41136;51.478;-2.610;2024-03-02T08:34:05;3;3;
55276;PMS5003;41136;51.478;-2.610;2024-03-02T08:36:31;2;2;
55276;PMS5003;41136;51.478;-2.610;2024-03-02T08:38:56;2;2;
55276;PMS5003;41136;51.478;-2.610;2024-03-02T08:41:22;8;7;
55276;PMS5003;41136;51.478;-2.610;2024-03-02T08:43:47;2;1;
55276;PMS5003;41136;51.478;-2.610;2024-03-02T08:46:12;0;0;
55276;PMS5003;41136;51.478;-2.610;2024-03-02T08:48:38;0;0;
55276;PMS5003;41136;51.478;-2.610;2024-03-02T08:51:04;1;1;
55276;PMS5003;41136;51.478;-2.610;2024-03-02T08:53:29;2;1;
55276;PMS5003;41136;51.478;-2.610;2024-03-02T08:55:54;0;0;
55276;PMS5003;41136;51.478;-2.610;2024-03-02T08:58:20;0;0;
55276;PMS5003;41136;51.478;-2.610;2024-03-02T09:00:45;1;1;
55276;PMS5003;41136;51.478;-2.610;2024-03-02T09:03:12;1;1;
55276;PMS5003;41136;51.478;-2.610;2024-03-02T09:05:36;0;0;
55276;PMS5003;41136;51.478;-2.610;2024-03-02T09:08:03;0;0;
55276;PMS5003;41136;51.478;-2.610;2024-03-02T09:10:27;0;0;
55276;PMS5003;41136;51.478;-2.610;2024-03-02T09:12:52;2;1;
55276;PMS5003;41136;51.478;-2.610;2024-03-02T09:15:18;1;1;
55276;PMS5003;41136;51.478;-2.610;2024-03-02T09:17:43;1;1;
55276;PMS5003;41136;51.478;-2.610;2024-03-02T09:20:09;1;1;
55276;PMS5003;41136;51.478;-2.610;2024-03-02T09:22:34;0;0;
55276;PMS5003;41136;51.478;-2.610;2024-03-02T09:25:00;0;0;
55276;PMS5003;41136;51.478;-2.610;2024-03-02T09:27:25;0;0;
55276;PMS5003;41136;51.478;-2.610;2024-03-02T09:29:50;0;0;
55276;PMS5003;41136;51.478;-2.610;2024-03-02T09:32:16;0;0;
55276;PMS5003;41136;51.478;-2.610;2024-03-02T09:34:41;0;0;
55276;PMS5003;41136;51.478;-2.610;2024-03-02T09:37:07;0;0;
55276;PMS5003;41136;51.478;-2.610;2024-03-02T09:39:32;1;1;
55276;PMS5003;41136;51.478;-2.610;2024-03-02T09:41:58;0;0;
55276;PMS5003;41136;51.478;-2.610;2024-03-02T09:44:23;1;1;
55276;PMS5003;41136;51.478;-2.610;2024-03-02T09:46:49;1;1;
55276;PMS5003;41136;51.478;-2.610;2024-03-02T09:49:14;1;1;
55276;PMS5003;41136;51.478;-2.610;2024-03-02T09:51:39;2;2;
55276;PMS5003;41136;51.478;-2.610;2024-03-02T09:54:05;2;2;
55276;PMS5003;41136;51.478;-2.610;2024-03-02T09:56:30;1;1;
55276;PMS5003;41136;51.478;-2.610;2024-03-02T09:58:56;0;0;
55276;PMS5003;41136;51.478;-2.610;2024-03-02T10:01:21;0;0;
55276;PMS5003;41136;51.478;-2.610;2024-03-02T10:03:47;0;0;
55276;PMS5003;41136;51.478;-2.610;2024-03-02T10:08:42;0;0;
55276;PMS5003;41136;51.478;-2.610;2024-03-02T10:11:03;0;0;
55276;PMS5003;41136;51.478;-2.610;2024-03-02T10:13:28;1;1;
55276;PMS5003;41136;51.478;-2.610;2024-03-02T10:15:53;0;0;
55276;PMS5003;41136;51.478;-2.610;2024-03-02T10:18:26;1;1;
55276;PMS5003;41136;51.478;-2.610;2024-03-02T10:20:44;0;0;
55276;PMS5003;41136;51.478;-2.610;2024-03-02T10:23:10;1;1;
55276;PMS5003;41136;51.478;-2.610;2024-03-02T10:25:35;0;0;
55276;PMS5003;41136;51.478;-2.610;2024-03-02T10:28:01;2;1;
55276;PMS5003;41136;51.478;-2.610;2024-03-02T10:30:27;1;1;
55276;PMS5003;41136;51.478;-2.610;2024-03-02T10:32:52;2;2;
55276;PMS5003;41136;51.478;-2.610;2024-03-02T10:35:17;3;3;
55276;PMS5003;41136;51.478;-2.610;2024-03-02T10:42:33;3;3;
55276;PMS5003;41136;51.478;-2.610;2024-03-02T10:44:58;3;2;
55276;PMS5003;41136;51.478;-2.610;2024-03-02T10:47:24;2;2;
55276;PMS5003;41136;51.478;-2.610;2024-03-02T10:49:49;3;3;
55276;PMS5003;41136;51.478;-2.610;2024-03-02T10:52:15;2;2;
55276;PMS5003;41136;51.478;-2.610;2024-03-02T10:54:40;2;2;
55276;PMS5003;41136;51.478;-2.610;2024-03-02T10:57:06;2;2;
55276;PMS5003;41136;51.478;-2.610;2024-03-02T10:59:32;2;2;
55276;PMS5003;41136;51.478;-2.610;2024-03-02T11:01:57;1;1;
55276;PMS5003;41136;51.478;-2.610;2024-03-02T11:04:22;1;1;
55276;PMS5003;41136;51.478;-2.610;2024-03-02T11:06:48;2;2;
55276;PMS5003;41136;51.478;-2.610;2024-03-02T11:09:13;2;2;
55276;PMS5003;41136;51.478;-2.610;2024-03-02T11:11:40;0;0;
55276;PMS5003;41136;51.478;-2.610;2024-03-02T11:14:04;0;0;
55276;PMS5003;41136;51.478;-2.610;2024-03-02T11:16:31;2;2;
55276;PMS5003;41136;51.478;-2.610;2024-03-02T11:18:54;3;1;
55276;PMS5003;41136;51.478;-2.610;2024-03-02T11:21:20;2;2;
55276;PMS5003;41136;51.478;-2.610;2024-03-02T11:23:45;0;0;
55276;PMS5003;41136;51.478;-2.610;2024-03-02T11:28:36;2;2;
55276;PMS5003;41136;51.478;-2.610;2024-03-02T11:31:01;1;1;
55276;PMS5003;41136;51.478;-2.610;2024-03-02T11:33:27;1;1;
55276;PMS5003;41136;51.478;-2.610;2024-03-02T11:35:52;1;0;
55276;PMS5003;41136;51.478;-2.610;2024-03-02T11:38:18;2;1;
55276;PMS5003;41136;51.478;-2.610;2024-03-02T11:40:43;0;0;
55276;PMS5003;41136;51.478;-2.610;2024-03-02T11:43:09;2;2;
55276;PMS5003;41136;51.478;-2.610;2024-03-02T11:45:35;1;1;
55276;PMS5003;41136;51.478;-2.610;2024-03-02T11:47:59;1;1;
55276;PMS5003;41136;51.478;-2.610;2024-03-02T11:52:50;2;2;
55276;PMS5003;41136;51.478;-2.610;2024-03-02T11:55:16;2;2;
55276;PMS5003;41136;51.478;-2.610;2024-03-02T11:57:41;4;3;
55276;PMS5003;41136;51.478;-2.610;2024-03-02T12:00:16;3;2;
55276;PMS5003;41136;51.478;-2.610;2024-03-02T12:02:32;2;2;
55276;PMS5003;41136;51.478;-2.610;2024-03-02T12:04:57;3;3;
55276;PMS5003;41136;51.478;-2.610;2024-03-02T12:07:23;4;4;
55276;PMS5003;41136;51.478;-2.610;2024-03-02T12:09:48;4;3;
55276;PMS5003;41136;51.478;-2.610;2024-03-02T12:12:13;4;2;
55276;PMS5003;41136;51.478;-2.610;2024-03-02T12:14:39;4;4;
55276;PMS5003;41136;51.478;-2.610;2024-03-02T12:17:04;4;4;
55276;PMS5003;41136;51.478;-2.610;2024-03-02T12:19:30;4;2;
55276;PMS5003;41136;51.478;-2.610;2024-03-02T12:21:55;4;4;
55276;PMS5003;41136;51.478;-2.610;2024-03-02T12:24:21;5;4;
55276;PMS5003;41136;51.478;-2.610;2024-03-02T12:26:46;4;4;
55276;PMS5003;41136;51.478;-2.610;2024-03-02T12:29:12;4;4;
55276;PMS5003;41136;51.478;-2.610;2024-03-02T12:31:37;5;5;
55276;PMS5003;41136;51.478;-2.610;2024-03-02T12:34:02;5;5;
55276;PMS5003;41136;51.478;-2.610;2024-03-02T12:36:27;6;4;
55276;PMS5003;41136;51.478;-2.610;2024-03-02T12:38:53;9;5;
55276;PMS5003;41136;51.478;-2.610;2024-03-02T12:48:20;4;4;
55276;PMS5003;41136;51.478;-2.610;2024-03-02T12:50:45;10;7;
55276;PMS5003;41136;51.478;-2.610;2024-03-02T12:53:14;9;8;
55276;PMS5003;41136;51.478;-2.610;2024-03-02T12:55:36;5;5;
55276;PMS5003;41136;51.478;-2.610;2024-03-02T12:58:02;5;5;
55276;PMS5003;41136;51.478;-2.610;2024-03-02T13:00:27;8;8;
55276;PMS5003;41136;51.478;-2.610;2024-03-02T13:02:52;10;7;
55276;PMS5003;41136;51.478;-2.610;2024-03-02T13:05:18;8;5;
55276;PMS5003;41136;51.478;-2.610;2024-03-02T13:07:43;7;7;
55276;PMS5003;41136;51.478;-2.610;2024-03-02T13:10:09;5;5;
55276;PMS5003;41136;51.478;-2.610;2024-03-02T13:12:35;8;7;
55276;PMS5003;41136;51.478;-2.610;2024-03-02T13:14:59;3;3;
55276;PMS5003;41136;51.478;-2.610;2024-03-02T13:17:25;5;5;
55276;PMS5003;41136;51.478;-2.610;2024-03-02T13:19:51;4;4;
55276;PMS5003;41136;51.478;-2.610;2024-03-02T13:22:16;5;5;
55276;PMS5003;41136;51.478;-2.610;2024-03-02T13:24:41;4;4;
55276;PMS5003;41136;51.478;-2.610;2024-03-02T13:27:07;4;4;
55276;PMS5003;41136;51.478;-2.610;2024-03-02T13:29:32;3;3;
55276;PMS5003;41136;51.478;-2.610;2024-03-02T13:31:57;5;5;
55276;PMS5003;41136;51.478;-2.610;2024-03-02T13:34:23;5;3;
55276;PMS5003;41136;51.478;-2.610;2024-03-02T13:36:48;5;5;
55276;PMS5003;41136;51.478;-2.610;2024-03-02T13:39:14;5;5;
55276;PMS5003;41136;51.478;-2.610;2024-03-02T13:41:39;4;4;
55276;PMS5003;41136;51.478;-2.610;2024-03-02T13:44:05;6;5;
55276;PMS5003;41136;51.478;-2.610;2024-03-02T13:46:30;5;5;
55276;PMS5003;41136;51.478;-2.610;2024-03-02T13:48:55;5;5;
55276;PMS5003;41136;51.478;-2.610;2024-03-02T13:51:21;5;4;
55276;PMS5003;41136;51.478;-2.610;2024-03-02T13:53:46;2;2;
55276;PMS5003;41136;51.478;-2.610;2024-03-02T13:56:12;3;2;
55276;PMS5003;41136;51.478;-2.610;2024-03-02T13:58:37;3;3;
55276;PMS5003;41136;51.478;-2.610;2024-03-02T14:01:02;4;3;
55276;PMS5003;41136;51.478;-2.610;2024-03-02T14:03:28;2;2;
55276;PMS5003;41136;51.478;-2.610;2024-03-02T14:05:53;2;2;
55276;PMS5003;41136;51.478;-2.610;2024-03-02T14:08:19;2;2;
55276;PMS5003;41136;51.478;-2.610;2024-03-02T14:10:44;4;3;
55276;PMS5003;41136;51.478;-2.610;2024-03-02T14:13:09;6;5;
55276;PMS5003;41136;51.478;-2.610;2024-03-02T14:15:35;38;34;
55276;PMS5003;41136;51.478;-2.610;2024-03-02T14:18:01;9;9;
55276;PMS5003;41136;51.478;-2.610;2024-03-02T14:20:26;9;9;
55276;PMS5003;41136;51.478;-2.610;2024-03-02T14:22:51;2;2;
55276;PMS5003;41136;51.478;-2.610;2024-03-02T14:25:17;3;2;
55276;PMS5003;41136;51.478;-2.610;2024-03-02T14:27:42;3;3;
55276;PMS5003;41136;51.478;-2.610;2024-03-02T14:30:08;2;2;
55276;PMS5003;41136;51.478;-2.610;2024-03-02T14:32:33;2;2;
55276;PMS5003;41136;51.478;-2.610;2024-03-02T14:34:59;2;2;
55276;PMS5003;41136;51.478;-2.610;2024-03-02T14:37:24;3;3;
55276;PMS5003;41136;51.478;-2.610;2024-03-02T14:39:49;1;1;
55276;PMS5003;41136;51.478;-2.610;2024-03-02T14:42:15;3;3;
55276;PMS5003;41136;51.478;-2.610;2024-03-02T14:44:40;2;2;
55276;PMS5003;41136;51.478;-2.610;2024-03-02T14:47:06;4;4;
55276;PMS5003;41136;51.478;-2.610;2024-03-02T14:49:31;0;0;
55276;PMS5003;41136;51.478;-2.610;2024-03-02T14:51:56;2;2;
55276;PMS5003;41136;51.478;-2.610;2024-03-02T14:54:22;3;3;
55276;PMS5003;41136;51.478;-2.610;2024-03-02T14:56:47;5;4;
55276;PMS5003;41136;51.478;-2.610;2024-03-02T14:59:13;5;4;
55276;PMS5003;41136;51.478;-2.610;2024-03-02T15:01:38;9;9;
55276;PMS5003;41136;51.478;-2.610;2024-03-02T15:04:03;9;8;
55276;PMS5003;41136;51.478;-2.610;2024-03-02T15:06:29;6;6;
55276;PMS5003;41136;51.478;-2.610;2024-03-02T15:08:54;5;3;
55276;PMS5003;41136;51.478;-2.610;2024-03-02T15:11:20;3;3;
55276;PMS5003;41136;51.478;-2.610;2024-03-02T15:13:45;2;2;
55276;PMS5003;41136;51.478;-2.610;2024-03-02T15:16:10;4;2;
55276;PMS5003;41136;51.478;-2.610;2024-03-02T15:18:36;2;2;
55276;PMS5003;41136;51.478;-2.610;2024-03-02T15:21:01;125;115;
55276;PMS5003;41136;51.478;-2.610;2024-03-02T15:23:27;92;76;
55276;PMS5003;41136;51.478;-2.610;2024-03-02T15:25:52;27;20;
55276;PMS5003;41136;51.478;-2.610;2024-03-02T15:28:18;8;6;
55276;PMS5003;41136;51.478;-2.610;2024-03-02T15:30:43;10;10;
55276;PMS5003;41136;51.478;-2.610;2024-03-02T15:33:08;7;7;
55276;PMS5003;41136;51.478;-2.610;2024-03-02T15:35:34;14;14;
55276;PMS5003;41136;51.478;-2.610;2024-03-02T15:37:59;11;11;
55276;PMS5003;41136;51.478;-2.610;2024-03-02T15:40:24;3;3;
55276;PMS5003;41136;51.478;-2.610;2024-03-02T15:42:50;3;3;
55276;PMS5003;41136;51.478;-2.610;2024-03-02T15:45:15;4;3;
55276;PMS5003;41136;51.478;-2.610;2024-03-02T15:47:40;4;4;
55276;PMS5003;41136;51.478;-2.610;2024-03-02T15:50:06;4;4;
55276;PMS5003;41136;51.478;-2.610;2024-03-02T15:52:31;5;5;
55276;PMS5003;41136;51.478;-2.610;2024-03-02T15:54:57;6;4;
55276;PMS5003;41136;51.478;-2.610;2024-03-02T15:57:22;4;4;
55276;PMS5003;41136;51.478;-2.610;2024-03-02T15:59:47;12;11;
55276;PMS5003;41136;51.478;-2.610;2024-03-02T16:02:12;15;13;
55276;PMS5003;41136;51.478;-2.610;2024-03-02T16:04:38;29;29;
55276;PMS5003;41136;51.478;-2.610;2024-03-02T16:07:03;11;11;
55276;PMS5003;41136;51.478;-2.610;2024-03-02T16:09:28;19;15;
55276;PMS5003;41136;51.478;-2.610;2024-03-02T16:11:54;21;18;
55276;PMS5003;41136;51.478;-2.610;2024-03-02T16:14:19;36;32;
55276;PMS5003;41136;51.478;-2.610;2024-03-02T16:16:44;20;17;
55276;PMS5003;41136;51.478;-2.610;2024-03-02T16:19:09;21;18;
55276;PMS5003;41136;51.478;-2.610;2024-03-02T16:21:35;8;8;
55276;PMS5003;41136;51.478;-2.610;2024-03-02T16:24:00;13;13;
55276;PMS5003;41136;51.478;-2.610;2024-03-02T16:26:25;13;13;
55276;PMS5003;41136;51.478;-2.610;2024-03-02T16:28:51;16;14;
55276;PMS5003;41136;51.478;-2.610;2024-03-02T16:31:16;21;18;
55276;PMS5003;41136;51.478;-2.610;2024-03-02T16:33:41;19;18;
55276;PMS5003;41136;51.478;-2.610;2024-03-02T16:36:07;14;12;
55276;PMS5003;41136;51.478;-2.610;2024-03-02T16:38:31;14;14;
55276;PMS5003;41136;51.478;-2.610;2024-03-02T16:40:57;7;7;
55276;PMS5003;41136;51.478;-2.610;2024-03-02T16:43:22;8;8;
55276;PMS5003;41136;51.478;-2.610;2024-03-02T16:51:38;9;7;
55276;PMS5003;41136;51.478;-2.610;2024-03-02T16:54:02;8;6;
55276;PMS5003;41136;51.478;-2.610;2024-03-02T17:02:26;20;19;
55276;PMS5003;41136;51.478;-2.610;2024-03-02T17:04:51;45;38;
55276;PMS5003;41136;51.478;-2.610;2024-03-02T17:07:17;50;44;
55276;PMS5003;41136;51.478;-2.610;2024-03-02T17:09:42;52;47;
55276;PMS5003;41136;51.478;-2.610;2024-03-02T17:12:08;27;25;
55276;PMS5003;41136;51.478;-2.610;2024-03-02T17:14:34;22;21;
55276;PMS5003;41136;51.478;-2.610;2024-03-02T17:16:59;21;19;
55276;PMS5003;41136;51.478;-2.610;2024-03-02T17:19:24;9;9;
55276;PMS5003;41136;51.478;-2.610;2024-03-02T17:21:50;7;5;
55276;PMS5003;41136;51.478;-2.610;2024-03-02T17:24:15;8;8;